Time;durP1;ratioP1;P1;durP2;ratioP2;P2;SDS_P1;SDS_P2;PMS_P1;PMS_P2;Temp;Humidity;BMP_temperature;BMP_pressure;BME280_temperature;BME280_humidity;BME280_pressure;Samples;Min_cycle;Max_cycle;Signal;HPM_P1;HPM_P2
2022/03/26 00:01:41;;;;;;;26.20;13.87;;;8.90;99.90;;;;;;5052892;28;20192;-79
2022/03/26 00:04:07;;;;;;;23.87;15.20;;;8.80;99.90;;;;;;5053869;28;20207;-79
2022/03/26 00:06:33;;;;;;;23.00;13.67;;;8.80;99.90;;;;;;5053498;28;20172;-79
2022/03/26 00:08:58;;;;;;;22.77;12.70;;;8.80;99.90;;;;;;5053943;28;20415;-79
2022/03/26 00:11:24;;;;;;;30.20;15.77;;;8.70;99.90;;;;;;5053868;28;20631;-79
2022/03/26 00:13:50;;;;;;;26.50;14.23;;;8.70;99.90;;;;;;5052615;28;20237;-79
2022/03/26 00:16:15;;;;;;;31.70;15.50;;;8.70;99.90;;;;;;5053464;28;20402;-79
2022/03/26 00:18:41;;;;;;;28.33;13.93;;;8.60;99.90;;;;;;5053415;28;20289;-79
2022/03/26 00:21:07;;;;;;;29.60;16.10;;;8.50;99.90;;;;;;5053324;28;20255;-79
2022/03/26 00:23:33;;;;;;;29.07;14.10;;;8.50;99.90;;;;;;5053491;28;20676;-79
2022/03/26 00:25:59;;;;;;;27.43;14.20;;;8.50;99.90;;;;;;5053440;28;20306;-79
2022/03/26 00:28:25;;;;;;;29.83;13.20;;;8.50;99.90;;;;;;5052989;28;20419;-79
2022/03/26 00:30:51;;;;;;;33.00;14.60;;;8.40;99.90;;;;;;5053378;28;20944;-79
2022/03/26 00:33:17;;;;;;;25.30;13.40;;;8.50;99.90;;;;;;5053211;28;20457;-79
2022/03/26 00:35:43;;;;;;;27.70;14.97;;;8.40;99.90;;;;;;5052757;28;20184;-79
2022/03/26 00:38:08;;;;;;;27.57;16.07;;;8.40;99.90;;;;;;5052421;28;20628;-79
2022/03/26 00:40:34;;;;;;;21.17;13.60;;;8.30;99.90;;;;;;5052317;28;20201;-79
2022/03/26 00:43:00;;;;;;;24.53;14.87;;;8.30;99.90;;;;;;5050965;28;20192;-79
2022/03/26 00:45:29;;;;;;;31.20;15.13;;;8.30;99.90;;;;;;5052598;28;20505;-79
2022/03/26 00:47:59;;;;;;;25.53;14.20;;;8.30;99.90;;;;;;5052484;28;20176;-79
2022/03/26 00:50:25;;;;;;;29.77;15.57;;;8.30;99.90;;;;;;5052688;28;20445;-80
2022/03/26 00:52:50;;;;;;;29.47;15.83;;;8.30;99.90;;;;;;5052568;28;20463;-79
2022/03/26 00:55:16;;;;;;;27.40;15.97;;;8.20;99.90;;;;;;5051302;28;20558;-80
2022/03/26 00:57:42;;;;;;;29.70;15.10;;;8.10;99.90;;;;;;5051987;28;20674;-80
2022/03/26 01:00:09;;;;;;;30.00;15.13;;;8.10;99.90;;;;;;5052447;28;20254;-79
2022/03/26 01:02:34;;;;;;;28.60;15.53;;;8.10;99.90;;;;;;5050970;28;20195;-79
2022/03/26 01:05:00;;;;;;;28.60;14.63;;;8.00;99.90;;;;;;5052517;28;20409;-78
2022/03/26 01:07:26;;;;;;;30.50;14.10;;;8.00;99.90;;;;;;5052497;28;20209;-79
2022/03/26 01:09:55;;;;;;;25.90;14.23;;;8.10;99.90;;;;;;5052421;28;20503;-79
2022/03/26 01:12:21;;;;;;;25.40;14.23;;;8.10;99.90;;;;;;5052728;28;20964;-79
2022/03/26 01:14:48;;;;;;;27.43;14.03;;;8.00;99.90;;;;;;5052920;28;20417;-78
2022/03/26 01:17:14;;;;;;;26.67;14.03;;;8.00;99.90;;;;;;5052368;28;20411;-79
2022/03/26 01:19:40;;;;;;;28.00;14.50;;;8.00;99.90;;;;;;5052188;28;20487;-79
2022/03/26 01:22:06;;;;;;;29.90;14.83;;;8.00;99.90;;;;;;5052090;28;20432;-80
2022/03/26 01:24:32;;;;;;;27.93;14.70;;;7.90;99.90;;;;;;5052511;28;20187;-79
2022/03/26 01:26:57;;;;;;;27.40;14.60;;;7.90;99.90;;;;;;5051684;28;20419;-78
2022/03/26 01:29:23;;;;;;;27.33;14.53;;;7.90;99.90;;;;;;5053299;28;20179;-79
2022/03/26 01:31:49;;;;;;;26.40;14.53;;;7.80;99.90;;;;;;5052919;28;20645;-79
2022/03/26 01:34:15;;;;;;;28.83;13.30;;;7.80;99.90;;;;;;5052919;28;20542;-78
2022/03/26 01:36:41;;;;;;;25.63;13.43;;;7.80;99.90;;;;;;5052099;28;20413;-79
2022/03/26 01:39:07;;;;;;;29.40;14.60;;;7.70;99.90;;;;;;5051906;28;20681;-79
2022/03/26 01:41:33;;;;;;;30.53;15.30;;;7.70;99.90;;;;;;5051881;28;20442;-79
2022/03/26 01:43:59;;;;;;;30.77;14.90;;;7.60;99.90;;;;;;5051824;28;20193;-79
2022/03/26 01:46:25;;;;;;;33.03;15.70;;;7.60;99.90;;;;;;5052408;28;20425;-78
2022/03/26 01:48:50;;;;;;;27.20;13.90;;;7.60;99.90;;;;;;5052126;28;20179;-79
2022/03/26 01:51:17;;;;;;;22.73;13.47;;;7.50;99.90;;;;;;5052206;28;20235;-79
2022/03/26 01:53:49;;;;;;;26.63;14.70;;;7.50;99.90;;;;;;5055355;28;20411;-79
2022/03/26 01:56:16;;;;;;;30.10;14.27;;;7.50;99.90;;;;;;5058272;28;20797;-79
2022/03/26 01:58:43;;;;;;;29.37;14.47;;;7.40;99.90;;;;;;5058152;28;20994;-79
2022/03/26 02:01:08;;;;;;;34.17;14.80;;;7.40;99.90;;;;;;5056841;28;20416;-79
2022/03/26 02:03:35;;;;;;;26.70;13.77;;;7.30;99.90;;;;;;5057120;28;20417;-79
2022/03/26 02:06:01;;;;;;;28.97;14.20;;;7.40;99.90;;;;;;5057480;28;20182;-79
2022/03/26 02:08:27;;;;;;;29.73;15.23;;;7.30;99.90;;;;;;5061189;28;20424;-80
2022/03/26 02:10:53;;;;;;;25.50;14.10;;;7.30;99.90;;;;;;5057370;28;20836;-79
2022/03/26 02:13:19;;;;;;;28.80;14.40;;;7.20;99.90;;;;;;5055301;28;20452;-80
2022/03/26 02:15:44;;;;;;;22.87;12.70;;;7.20;99.90;;;;;;5055094;28;20182;-79
2022/03/26 02:18:11;;;;;;;32.10;14.30;;;7.20;99.90;;;;;;5055200;28;20985;-79
2022/03/26 02:20:37;;;;;;;32.90;13.90;;;7.20;99.90;;;;;;5054969;28;20181;-79
2022/03/26 02:23:02;;;;;;;25.30;14.10;;;7.20;99.90;;;;;;5054902;28;20433;-79
2022/03/26 02:25:28;;;;;;;31.77;15.90;;;7.10;99.90;;;;;;5056096;28;20903;-79
2022/03/26 02:27:54;;;;;;;27.53;14.90;;;7.10;99.90;;;;;;5055301;28;20182;-79
2022/03/26 02:30:21;;;;;;;24.53;13.47;;;7.00;99.90;;;;;;5056774;28;20638;-79
2022/03/26 02:32:46;;;;;;;32.40;15.93;;;7.00;99.90;;;;;;5055737;28;20469;-79
2022/03/26 02:35:13;;;;;;;33.10;14.90;;;7.00;99.90;;;;;;5055340;28;20571;-79
2022/03/26 02:37:39;;;;;;;29.27;15.37;;;7.00;99.90;;;;;;5056491;28;20420;-79
2022/03/26 02:40:07;;;;;;;28.30;13.40;;;7.00;99.90;;;;;;5057175;28;20929;-79
2022/03/26 02:42:33;;;;;;;23.23;14.00;;;6.90;99.90;;;;;;5056042;28;20600;-79
2022/03/26 02:44:59;;;;;;;32.50;16.50;;;6.90;99.90;;;;;;5056420;28;20468;-79
2022/03/26 02:47:25;;;;;;;25.03;15.27;;;6.90;99.90;;;;;;5055577;28;20404;-79
2022/03/26 02:49:51;;;;;;;27.13;15.83;;;6.80;99.90;;;;;;5056229;28;20424;-79
2022/03/26 02:52:16;;;;;;;33.23;15.97;;;6.80;99.90;;;;;;5056166;28;20204;-79
2022/03/26 02:54:42;;;;;;;24.67;13.40;;;6.90;99.90;;;;;;5055696;28;20444;-79
2022/03/26 02:57:08;;;;;;;24.03;13.77;;;6.80;99.90;;;;;;5053685;28;20212;-79
2022/03/26 02:59:33;;;;;;;29.40;14.40;;;6.80;99.90;;;;;;5055263;28;20231;-79
2022/03/26 03:01:59;;;;;;;27.20;14.10;;;6.80;99.90;;;;;;5054714;28;20209;-79
2022/03/26 03:04:25;;;;;;;32.70;15.23;;;6.80;99.90;;;;;;5056020;28;20551;-79
2022/03/26 03:06:51;;;;;;;30.60;15.00;;;6.80;99.90;;;;;;5056195;28;20177;-79
2022/03/26 03:09:17;;;;;;;31.90;16.70;;;6.70;99.90;;;;;;5056663;28;20423;-79
2022/03/26 03:11:43;;;;;;;30.40;15.37;;;6.70;99.90;;;;;;5055694;28;20296;-79
2022/03/26 03:14:10;;;;;;;32.73;15.47;;;6.70;99.90;;;;;;5055820;28;20513;-79
2022/03/26 03:16:37;;;;;;;26.30;13.73;;;6.60;99.90;;;;;;5053146;28;20427;-79
2022/03/26 03:19:06;;;;;;;32.60;14.50;;;6.60;99.90;;;;;;5055347;28;20504;-79
2022/03/26 03:21:32;;;;;;;28.90;13.83;;;6.60;99.90;;;;;;5055141;28;20454;-79
2022/03/26 03:23:57;;;;;;;28.77;15.30;;;6.60;99.90;;;;;;5055075;28;20407;-79
2022/03/26 03:26:23;;;;;;;31.17;15.63;;;6.60;99.90;;;;;;5055113;28;20477;-80
2022/03/26 03:28:48;;;;;;;33.77;15.40;;;6.50;99.90;;;;;;5053004;28;20179;-80
2022/03/26 03:31:14;;;;;;;26.60;14.77;;;6.50;99.90;;;;;;5054163;28;20178;-79
2022/03/26 03:33:40;;;;;;;29.97;14.63;;;6.50;99.90;;;;;;5054622;28;20213;-79
2022/03/26 03:36:06;;;;;;;27.70;14.20;;;6.50;99.90;;;;;;5053946;28;20675;-79
2022/03/26 03:38:32;;;;;;;30.43;15.40;;;6.50;99.90;;;;;;5055593;28;20606;-79
2022/03/26 03:40:58;;;;;;;32.70;15.90;;;6.50;99.90;;;;;;5056277;28;20449;-79
2022/03/26 03:43:24;;;;;;;26.23;14.10;;;6.40;99.90;;;;;;5055219;28;20942;-79
2022/03/26 03:45:50;;;;;;;31.23;15.43;;;6.40;99.90;;;;;;5054353;28;20399;-80
2022/03/26 03:48:15;;;;;;;23.10;14.33;;;6.40;99.90;;;;;;5053867;28;20194;-79
2022/03/26 03:50:41;;;;;;;29.60;14.40;;;6.40;99.90;;;;;;5054288;28;20184;-79
2022/03/26 03:53:07;;;;;;;30.60;15.50;;;6.40;99.90;;;;;;5054199;28;20208;-79
2022/03/26 03:55:32;;;;;;;29.80;15.20;;;6.30;99.90;;;;;;5053639;28;20599;-79
2022/03/26 03:57:58;;;;;;;27.80;15.40;;;6.30;99.90;;;;;;5052190;28;20675;-79
2022/03/26 04:00:24;;;;;;;27.67;13.37;;;6.30;99.90;;;;;;5054580;28;20205;-79
2022/03/26 04:02:49;;;;;;;29.80;15.93;;;6.30;99.90;;;;;;5054410;28;20196;-79
2022/03/26 04:05:15;;;;;;;29.80;14.87;;;6.30;99.90;;;;;;5053980;28;20262;-80
2022/03/26 04:07:41;;;;;;;34.00;14.73;;;6.30;99.90;;;;;;5051927;28;20184;-80
2022/03/26 04:10:09;;;;;;;30.47;15.90;;;6.20;99.90;;;;;;5053041;28;20291;-80
2022/03/26 04:12:40;;;;;;;28.17;14.33;;;6.20;99.90;;;;;;5053642;28;20432;-80
2022/03/26 04:15:07;;;;;;;26.50;13.77;;;6.10;99.90;;;;;;5053063;28;20907;-79
2022/03/26 04:17:32;;;;;;;30.17;13.77;;;6.10;99.90;;;;;;5051955;28;20943;-80
2022/03/26 04:19:59;;;;;;;30.53;14.40;;;6.10;99.90;;;;;;5052329;28;20428;-79
2022/03/26 04:22:25;;;;;;;32.10;15.50;;;6.10;99.90;;;;;;5053428;28;20211;-80
2022/03/26 04:24:50;;;;;;;24.77;14.40;;;6.10;99.90;;;;;;5052205;28;20914;-79
2022/03/26 04:27:16;;;;;;;31.17;15.00;;;6.10;99.90;;;;;;5052809;28;20274;-79
2022/03/26 04:29:41;;;;;;;29.63;15.17;;;5.90;99.90;;;;;;5054157;28;20234;-79
2022/03/26 04:32:07;;;;;;;33.80;15.67;;;5.90;99.90;;;;;;5052789;28;20220;-79
2022/03/26 04:34:33;;;;;;;27.63;14.10;;;5.90;99.90;;;;;;5052601;28;20275;-79
2022/03/26 04:36:58;;;;;;;27.53;15.17;;;5.90;99.90;;;;;;5053542;28;20217;-79
2022/03/26 04:39:24;;;;;;;29.50;15.73;;;5.90;99.90;;;;;;5052120;28;20210;-80
2022/03/26 04:41:49;;;;;;;27.67;14.93;;;5.90;99.90;;;;;;5053098;28;20203;-79
2022/03/26 04:44:15;;;;;;;30.13;15.47;;;5.80;99.90;;;;;;5052461;28;20175;-79
2022/03/26 04:46:41;;;;;;;33.13;15.87;;;5.90;99.90;;;;;;5053338;28;20264;-79
2022/03/26 04:49:06;;;;;;;29.20;13.97;;;5.80;99.90;;;;;;5053634;28;20418;-79
2022/03/26 04:51:32;;;;;;;26.20;13.93;;;5.80;99.90;;;;;;5053131;28;20206;-80
2022/03/26 04:53:58;;;;;;;28.90;15.17;;;5.80;99.90;;;;;;5053581;28;20264;-79
2022/03/26 04:56:24;;;;;;;29.50;14.60;;;5.80;99.90;;;;;;5053718;28;20184;-79
2022/03/26 04:58:49;;;;;;;32.80;13.87;;;5.80;99.90;;;;;;5053093;28;20465;-79
2022/03/26 05:01:15;;;;;;;25.10;13.50;;;5.80;99.90;;;;;;5056275;28;20267;-79
2022/03/26 05:03:44;;;;;;;34.00;14.97;;;5.70;99.90;;;;;;5057513;28;20198;-81
2022/03/26 05:06:09;;;;;;;29.80;15.27;;;5.70;99.90;;;;;;5054065;28;20791;-79
2022/03/26 05:08:35;;;;;;;26.77;15.20;;;5.70;99.90;;;;;;5052696;28;20418;-79
2022/03/26 05:11:00;;;;;;;33.43;15.53;;;5.70;99.90;;;;;;5052760;28;20700;-79
2022/03/26 05:13:26;;;;;;;30.70;16.40;;;5.70;99.90;;;;;;5051433;28;20562;-79
2022/03/26 05:15:51;;;;;;;33.37;17.10;;;5.70;99.90;;;;;;5052496;28;20184;-79
2022/03/26 05:18:17;;;;;;;30.63;14.80;;;5.70;99.90;;;;;;5051224;28;20213;-79
2022/03/26 05:20:43;;;;;;;30.00;14.37;;;5.70;99.90;;;;;;5052901;28;20172;-79
2022/03/26 05:23:09;;;;;;;25.77;13.97;;;5.70;99.90;;;;;;5051675;28;20204;-79
2022/03/26 05:25:35;;;;;;;33.30;16.50;;;5.70;99.90;;;;;;5051933;28;20418;-79
2022/03/26 05:28:00;;;;;;;36.27;14.83;;;5.70;99.90;;;;;;5055620;28;20648;-79
2022/03/26 05:30:26;;;;;;;35.63;17.13;;;5.60;99.90;;;;;;5057098;28;20531;-79
2022/03/26 05:32:52;;;;;;;36.83;16.00;;;5.60;99.90;;;;;;5056563;28;20273;-79
2022/03/26 05:35:18;;;;;;;27.00;15.00;;;5.60;99.90;;;;;;5056716;28;20417;-79
2022/03/26 05:37:45;;;;;;;27.27;15.50;;;5.60;99.90;;;;;;5055454;28;20190;-79
2022/03/26 05:40:13;;;;;;;30.97;15.50;;;5.60;99.90;;;;;;5057330;28;20206;-78
2022/03/26 05:42:39;;;;;;;34.10;16.33;;;5.60;99.90;;;;;;5056815;28;20855;-79
2022/03/26 05:45:06;;;;;;;31.63;17.67;;;5.70;99.90;;;;;;5056683;28;20758;-79
2022/03/26 05:47:33;;;;;;;33.83;16.03;;;5.70;99.90;;;;;;5056153;28;20500;-79
2022/03/26 05:49:59;;;;;;;28.97;16.20;;;5.70;99.90;;;;;;5056502;28;20417;-79
2022/03/26 05:52:25;;;;;;;33.70;14.83;;;5.80;99.90;;;;;;5056230;28;20426;-79
2022/03/26 05:54:50;;;;;;;35.20;16.23;;;5.80;99.90;;;;;;5056460;28;20414;-79
2022/03/26 05:57:17;;;;;;;30.70;16.10;;;5.70;99.90;;;;;;5056323;28;20176;-79
2022/03/26 05:59:42;;;;;;;33.23;16.70;;;5.70;99.90;;;;;;5055661;28;20208;-80
2022/03/26 06:02:11;;;;;;;29.43;16.50;;;5.70;99.90;;;;;;5056056;28;20816;-79
2022/03/26 06:04:37;;;;;;;33.20;17.20;;;5.70;99.90;;;;;;5056130;28;20191;-79
2022/03/26 06:07:02;;;;;;;31.37;16.27;;;5.80;99.90;;;;;;5056236;28;20503;-79
2022/03/26 06:09:28;;;;;;;36.77;17.10;;;5.80;99.90;;;;;;5056771;28;20618;-79
2022/03/26 06:11:55;;;;;;;33.47;17.20;;;5.80;99.90;;;;;;5054170;28;20708;-80
2022/03/26 06:14:21;;;;;;;49.90;18.03;;;5.90;99.90;;;;;;5055860;28;20293;-79
2022/03/26 06:16:47;;;;;;;38.47;18.00;;;5.90;99.90;;;;;;5055973;28;21149;-79
2022/03/26 06:19:15;;;;;;;34.90;16.53;;;6.00;99.90;;;;;;5055553;28;20203;-79
2022/03/26 06:21:41;;;;;;;30.53;15.90;;;6.10;99.90;;;;;;5054579;28;20206;-79
2022/03/26 06:24:06;;;;;;;38.37;17.70;;;6.10;99.90;;;;;;5056301;28;20497;-79
2022/03/26 06:26:32;;;;;;;35.87;19.23;;;6.20;99.90;;;;;;5056617;28;20180;-79
2022/03/26 06:28:58;;;;;;;34.40;16.20;;;6.20;99.90;;;;;;5056186;28;20275;-81
2022/03/26 06:31:24;;;;;;;30.97;18.73;;;6.20;99.90;;;;;;5057363;28;20194;-81
2022/03/26 06:33:50;;;;;;;31.20;17.17;;;6.30;99.90;;;;;;5057608;28;20160;-79
2022/03/26 06:36:18;;;;;;;31.27;16.47;;;6.50;99.90;;;;;;5054588;28;20795;-79
2022/03/26 06:38:44;;;;;;;33.70;18.43;;;6.60;99.90;;;;;;5054747;28;20460;-79
2022/03/26 06:41:11;;;;;;;32.03;16.30;;;6.80;99.90;;;;;;5056303;28;20501;-79
2022/03/26 06:43:38;;;;;;;35.53;17.83;;;6.90;99.90;;;;;;5054631;28;20556;-79
2022/03/26 06:46:04;;;;;;;37.77;17.80;;;7.00;99.90;;;;;;5055413;28;20441;-79
2022/03/26 06:48:31;;;;;;;34.00;17.93;;;7.00;99.90;;;;;;5055683;28;20466;-79
2022/03/26 06:50:57;;;;;;;34.40;18.83;;;7.10;99.90;;;;;;5057075;28;20899;-79
2022/03/26 06:53:23;;;;;;;31.80;18.13;;;7.10;99.90;;;;;;5057378;28;20518;-79
2022/03/26 06:55:48;;;;;;;35.13;18.67;;;7.30;99.90;;;;;;5056528;28;20420;-80
2022/03/26 06:58:14;;;;;;;35.70;17.90;;;7.50;99.90;;;;;;5056028;28;20522;-79
2022/03/26 07:00:40;;;;;;;33.10;16.87;;;7.60;99.90;;;;;;5056302;28;20174;-79
2022/03/26 07:03:05;;;;;;;32.57;17.93;;;7.80;99.90;;;;;;5056455;28;20210;-79
2022/03/26 07:05:31;;;;;;;33.40;18.03;;;7.90;99.90;;;;;;5056542;28;20177;-80
2022/03/26 07:07:57;;;;;;;39.83;17.97;;;8.00;99.90;;;;;;5055889;28;20320;-79
2022/03/26 07:10:23;;;;;;;41.77;18.83;;;8.10;99.90;;;;;;5055027;28;20182;-79
2022/03/26 07:12:49;;;;;;;35.23;17.73;;;8.20;99.90;;;;;;5054758;28;20440;-79
2022/03/26 07:15:15;;;;;;;39.10;19.10;;;8.40;99.90;;;;;;5054576;28;20916;-79
2022/03/26 07:17:42;;;;;;;42.80;21.67;;;8.50;99.90;;;;;;5053973;28;20183;-79
2022/03/26 07:20:08;;;;;;;38.27;21.03;;;8.60;99.90;;;;;;5054639;28;20783;-79
2022/03/26 07:22:34;;;;;;;38.03;19.37;;;8.70;99.90;;;;;;5052770;28;20452;-79
2022/03/26 07:25:00;;;;;;;32.83;18.90;;;8.90;99.90;;;;;;5054271;28;20410;-79
2022/03/26 07:27:33;;;;;;;35.13;18.13;;;9.00;99.90;;;;;;5053920;28;20419;-79
2022/03/26 07:29:59;;;;;;;35.43;19.63;;;9.10;99.90;;;;;;5054019;28;20461;-79
2022/03/26 07:32:25;;;;;;;38.00;22.17;;;9.30;99.90;;;;;;5053821;28;20457;-79
2022/03/26 07:34:52;;;;;;;36.60;20.70;;;9.40;99.90;;;;;;5054043;28;20414;-79
2022/03/26 07:37:18;;;;;;;36.40;19.80;;;9.60;99.90;;;;;;5053581;28;20410;-79
2022/03/26 07:39:44;;;;;;;43.40;21.83;;;9.80;99.90;;;;;;5052226;28;20462;-79
2022/03/26 07:42:09;;;;;;;38.17;21.20;;;9.90;99.90;;;;;;5053820;28;20191;-79
2022/03/26 07:44:35;;;;;;;38.10;20.70;;;10.00;99.90;;;;;;5053563;28;20182;-79
2022/03/26 07:47:01;;;;;;;37.73;20.73;;;10.10;99.90;;;;;;5053045;28;20543;-79
2022/03/26 07:49:27;;;;;;;37.93;20.90;;;10.20;99.90;;;;;;5053290;28;20406;-79
2022/03/26 07:51:52;;;;;;;34.97;20.50;;;10.30;99.90;;;;;;5053463;28;20201;-79
2022/03/26 07:54:18;;;;;;;39.13;21.33;;;10.40;99.90;;;;;;5053597;28;20241;-79
2022/03/26 07:56:43;;;;;;;38.37;21.27;;;10.50;99.90;;;;;;5054663;28;20191;-80
2022/03/26 07:59:09;;;;;;;37.07;20.07;;;10.60;99.90;;;;;;5058683;28;20230;-80
2022/03/26 08:01:35;;;;;;;37.10;20.30;;;10.60;99.90;;;;;;5053762;28;20206;-79
2022/03/26 08:04:00;;;;;;;40.00;20.90;;;10.70;99.90;;;;;;5053046;28;20181;-79
2022/03/26 08:06:26;;;;;;;40.23;21.40;;;10.90;99.90;;;;;;5051498;28;20179;-79
2022/03/26 08:08:51;;;;;;;38.47;19.37;;;11.00;99.90;;;;;;5052920;28;20579;-80
2022/03/26 08:11:17;;;;;;;34.00;18.63;;;11.20;99.90;;;;;;5052868;28;20226;-80
2022/03/26 08:13:43;;;;;;;41.33;20.17;;;11.30;99.90;;;;;;5053027;28;20175;-79
2022/03/26 08:16:09;;;;;;;29.53;18.20;;;11.50;99.90;;;;;;5053370;28;20179;-80
2022/03/26 08:18:35;;;;;;;38.60;20.20;;;11.60;99.90;;;;;;5053664;28;20684;-79
2022/03/26 08:21:01;;;;;;;36.67;20.33;;;11.80;99.90;;;;;;5052104;28;20789;-80
2022/03/26 08:23:27;;;;;;;33.60;19.73;;;12.00;99.90;;;;;;5051900;28;20415;-80
2022/03/26 08:28:37;;;;;;;32.27;18.77;;;12.20;99.90;;;;;;5053609;28;20171;-79
2022/03/26 08:31:03;;;;;;;37.77;20.07;;;12.30;99.90;;;;;;5053157;28;20418;-79
2022/03/26 08:33:29;;;;;;;40.27;20.47;;;12.40;99.90;;;;;;5053098;28;20183;-79
2022/03/26 08:35:54;;;;;;;33.37;20.07;;;12.60;99.90;;;;;;5052976;28;20921;-79
2022/03/26 08:38:20;;;;;;;35.73;19.53;;;12.70;99.90;;;;;;5052866;28;20678;-79
2022/03/26 08:40:46;;;;;;;32.73;17.33;;;12.80;99.90;;;;;;5053049;28;20176;-79
2022/03/26 08:43:13;;;;;;;35.97;19.50;;;12.90;99.90;;;;;;5046485;28;20307;-79
2022/03/26 08:45:40;;;;;;;31.33;19.50;;;13.10;99.90;;;;;;5050738;28;20307;-79
2022/03/26 08:48:06;;;;;;;32.93;19.50;;;13.30;99.90;;;;;;5053011;28;20420;-79
2022/03/26 08:50:32;;;;;;;34.37;18.73;;;13.50;99.90;;;;;;5053468;28;20429;-80
2022/03/26 08:52:58;;;;;;;32.57;17.97;;;13.50;99.90;;;;;;5053040;28;20448;-79
2022/03/26 08:55:24;;;;;;;35.40;19.80;;;13.50;99.90;;;;;;5052029;28;20494;-79
2022/03/26 08:57:49;;;;;;;32.53;17.47;;;13.60;99.90;;;;;;5052689;28;20175;-79
2022/03/26 09:00:16;;;;;;;37.43;19.53;;;13.80;99.90;;;;;;5051763;28;20441;-80
2022/03/26 09:02:42;;;;;;;33.80;19.07;;;14.00;99.90;;;;;;5052547;28;20191;-80
2022/03/26 09:05:08;;;;;;;34.50;18.27;;;14.10;99.90;;;;;;5053575;28;20491;-80
2022/03/26 09:07:34;;;;;;;33.03;18.97;;;14.20;99.90;;;;;;5053446;28;20252;-81
2022/03/26 09:10:00;;;;;;;29.10;19.37;;;14.40;99.90;;;;;;5052038;28;20472;-79
2022/03/26 09:12:25;;;;;;;27.17;16.60;;;14.60;99.90;;;;;;5050707;28;20426;-79
2022/03/26 09:14:51;;;;;;;35.47;20.53;;;14.90;99.90;;;;;;5039662;28;20223;-79
2022/03/26 09:17:17;;;;;;;30.23;17.07;;;15.10;99.90;;;;;;5041875;28;20249;-80
2022/03/26 09:19:43;;;;;;;30.40;17.23;;;15.30;99.90;;;;;;5051862;28;20195;-80
2022/03/26 09:22:09;;;;;;;37.40;19.43;;;15.40;99.90;;;;;;5048158;28;20488;-80
2022/03/26 09:24:34;;;;;;;26.70;16.93;;;15.40;99.90;;;;;;5034939;28;20198;-80
2022/03/26 09:27:00;;;;;;;33.47;19.77;;;15.60;99.90;;;;;;5046471;28;20306;-80
2022/03/26 09:29:25;;;;;;;34.93;18.10;;;15.80;99.90;;;;;;5049168;28;20604;-82
2022/03/26 09:31:51;;;;;;;28.63;17.40;;;16.30;99.90;;;;;;5046427;28;20223;-80
2022/03/26 09:34:17;;;;;;;31.47;17.60;;;17.60;99.90;;;;;;5037630;28;20176;-80
2022/03/26 09:36:42;;;;;;;28.17;18.10;;;19.40;99.90;;;;;;5043400;28;20206;-79
2022/03/26 09:39:08;;;;;;;29.53;17.70;;;21.40;95.20;;;;;;5037859;28;20204;-81
2022/03/26 09:41:34;;;;;;;27.50;16.87;;;22.90;81.10;;;;;;5051376;28;20600;-80
2022/03/26 09:44:00;;;;;;;24.07;15.67;;;24.50;69.50;;;;;;5050688;28;20666;-80
2022/03/26 09:46:26;;;;;;;26.80;15.07;;;26.30;62.80;;;;;;5051210;28;20418;-80
2022/03/26 09:48:52;;;;;;;24.33;16.17;;;27.90;51.90;;;;;;5049851;28;20180;-80
2022/03/26 09:51:24;;;;;;;27.17;17.20;;;29.20;48.00;;;;;;5051163;28;20540;-80
2022/03/26 09:53:52;;;;;;;25.03;15.60;;;30.70;44.20;;;;;;5051532;28;20194;-80
2022/03/26 09:56:19;;;;;;;23.20;16.20;;;31.80;40.20;;;;;;5051409;28;20410;-81
2022/03/26 09:58:45;;;;;;;24.23;15.83;;;32.60;37.00;;;;;;5049698;28;20468;-81
2022/03/26 10:01:11;;;;;;;22.90;16.17;;;33.60;37.00;;;;;;5050091;28;20418;-81
2022/03/26 10:03:39;;;;;;;22.97;15.50;;;34.40;35.20;;;;;;5051248;28;20414;-81
2022/03/26 10:06:07;;;;;;;24.20;15.87;;;35.30;34.70;;;;;;5051102;28;20178;-81
2022/03/26 10:08:37;;;;;;;20.57;15.27;;;36.10;32.40;;;;;;5049121;28;20796;-80
2022/03/26 10:11:04;;;;;;;25.00;18.10;;;36.60;30.00;;;;;;5051239;28;20414;-81
2022/03/26 10:13:39;;;;;;;23.30;16.50;;;37.00;30.30;;;;;;5052463;28;20807;-79
2022/03/26 10:16:11;;;;;;;23.07;16.20;;;37.60;29.10;;;;;;5054634;28;20406;-81
2022/03/26 10:18:41;;;;;;;19.43;15.33;;;37.70;28.20;;;;;;5032683;28;20836;-81
2022/03/26 10:21:10;;;;;;;21.02;17.05;;;38.00;27.70;;;;;;5034500;28;21121;-82
2022/03/26 10:23:36;;;;;;;26.37;18.70;;;38.40;27.90;;;;;;5048399;28;20194;-81
2022/03/26 10:26:06;;;;;;;22.07;16.77;;;37.90;26.60;;;;;;5055315;28;20422;-80
2022/03/26 10:28:32;;;;;;;22.90;16.80;;;38.10;27.40;;;;;;5055242;28;20179;-81
2022/03/26 10:34:14;;;;;;;22.83;15.30;;;37.10;27.40;;;;;;5055124;28;20178;-81
2022/03/26 10:36:43;;;;;;;20.70;16.10;;;38.20;27.10;;;;;;5054246;28;20409;-81
2022/03/26 10:39:17;;;;;;;23.17;16.57;;;38.90;26.60;;;;;;5054558;28;20472;-79
2022/03/26 10:41:43;;;;;;;25.23;16.77;;;38.80;25.90;;;;;;5054414;28;20440;-81
2022/03/26 10:44:15;;;;;;;20.30;15.87;;;39.30;26.40;;;;;;5054454;28;20414;-81
2022/03/26 10:46:51;;;;;;;22.23;17.27;;;39.70;26.00;;;;;;5054090;28;20422;-81
2022/03/26 10:49:30;;;;;;;24.20;17.03;;;38.90;24.10;;;;;;5054621;28;20410;-81
2022/03/26 10:52:03;;;;;;;20.80;15.67;;;38.40;25.20;;;;;;5054165;28;20440;-81
2022/03/26 10:54:31;;;;;;;19.90;16.10;;;39.10;25.20;;;;;;5055159;28;20800;-81
2022/03/26 10:56:58;;;;;;;18.80;14.53;;;39.60;25.10;;;;;;5053877;28;20410;-81
2022/03/26 10:59:25;;;;;;;20.90;15.30;;;39.90;25.00;;;;;;5052994;28;20465;-82
2022/03/26 11:01:50;;;;;;;20.53;16.47;;;38.70;24.80;;;;;;5054095;28;20430;-82
2022/03/26 11:04:16;;;;;;;21.40;16.63;;;37.90;25.60;;;;;;5054129;28;20419;-80
2022/03/26 11:06:43;;;;;;;22.27;17.87;;;37.70;24.80;;;;;;5053640;28;20186;-81
2022/03/26 11:09:10;;;;;;;20.17;17.17;;;37.80;24.40;;;;;;5054061;28;20184;-82
2022/03/26 11:11:36;;;;;;;22.30;16.40;;;37.30;24.50;;;;;;5053903;28;20446;-81
2022/03/26 11:14:07;;;;;;;22.83;16.40;;;37.10;25.90;;;;;;5054123;28;20424;-80
2022/03/26 11:17:08;;;;;;;23.23;17.97;;;37.40;25.30;;;;;;5053375;28;20419;-80
2022/03/26 11:19:49;;;;;;;20.30;15.20;;;36.80;25.20;;;;;;5053785;28;20466;-80
2022/03/26 11:22:34;;;;;;;25.23;17.27;;;35.90;24.70;;;;;;5052597;28;20440;-81
2022/03/26 11:25:28;;;;;;;23.00;15.87;;;34.70;25.40;;;;;;5053389;28;20781;-80
2022/03/26 11:28:08;;;;;;;26.53;15.83;;;34.30;25.90;;;;;;5053439;28;20472;-81
2022/03/26 11:30:47;;;;;;;22.20;14.83;;;34.20;26.20;;;;;;5053677;28;20430;-80
2022/03/26 11:33:15;;;;;;;22.30;16.17;;;34.10;26.30;;;;;;5053842;28;20976;-80
2022/03/26 11:36:00;;;;;;;20.93;15.30;;;34.10;26.60;;;;;;5053282;28;20406;-81
2022/03/26 11:38:28;;;;;;;22.70;15.70;;;34.60;26.60;;;;;;5053219;28;20854;-80
2022/03/26 11:40:55;;;;;;;21.23;16.17;;;35.80;26.80;;;;;;5052138;28;20414;-81
2022/03/26 11:43:42;;;;;;;19.40;14.70;;;36.70;26.90;;;;;;5053326;28;20470;-81
2022/03/26 11:52:20;;;;;;;20.00;13.63;;;39.00;25.50;;;;;;5053573;28;20486;-80
2022/03/26 11:54:47;;;;;;;18.17;12.47;;;39.40;24.30;;;;;;5053214;28;20544;-80
2022/03/26 11:57:18;;;;;;;17.80;13.67;;;39.30;24.50;;;;;;5052751;28;20956;-80
2022/03/26 11:59:45;;;;;;;18.17;12.97;;;39.70;24.50;;;;;;5053075;28;20520;-80
2022/03/26 12:02:19;;;;;;;18.43;13.80;;;38.40;23.50;;;;;;5052743;28;20434;-80
2022/03/26 12:04:53;;;;;;;18.07;13.00;;;38.60;23.80;;;;;;5052943;28;20421;-80
2022/03/26 12:07:21;;;;;;;16.13;11.33;;;39.00;24.60;;;;;;5053408;28;20437;-80
2022/03/26 12:09:52;;;;;;;14.70;10.73;;;39.00;23.00;;;;;;5053051;28;20421;-80
2022/03/26 12:12:19;;;;;;;11.00;9.50;;;39.30;24.00;;;;;;5052815;28;20947;-80
2022/03/26 12:15:03;;;;;;;11.00;9.17;;;39.70;23.70;;;;;;5052778;28;20575;-81
2022/03/26 12:17:45;;;;;;;14.40;9.50;;;38.80;23.60;;;;;;5051005;28;20509;-81
2022/03/26 12:20:25;;;;;;;10.80;8.27;;;36.80;24.10;;;;;;5052828;28;20422;-80
2022/03/26 12:23:02;;;;;;;11.70;8.50;;;35.40;25.30;;;;;;5052498;28;20471;-80
2022/03/26 12:25:45;;;;;;;11.30;8.13;;;35.90;24.90;;;;;;5052425;28;20471;-80
2022/03/26 12:28:11;;;;;;;10.23;7.90;;;37.20;25.00;;;;;;5052516;28;20418;-80
2022/03/26 12:30:42;;;;;;;10.40;8.50;;;37.90;23.80;;;;;;5052751;28;20773;-80
2022/03/26 12:33:08;;;;;;;10.90;7.43;;;38.60;23.80;;;;;;5052761;28;20265;-80
2022/03/26 12:35:34;;;;;;;9.87;7.20;;;38.30;23.70;;;;;;5052108;28;20418;-80
2022/03/26 12:38:02;;;;;;;8.23;6.07;;;38.50;23.70;;;;;;5054474;28;20183;-81
2022/03/26 12:40:28;;;;;;;8.07;6.30;;;38.90;23.20;;;;;;5052047;28;20190;-81
2022/03/26 12:42:55;;;;;;;8.87;6.17;;;39.30;23.20;;;;;;5034319;28;20464;-81
2022/03/26 12:45:21;;;;;;;8.47;5.87;;;39.40;22.90;;;;;;5032343;28;20184;-82